Time;durP1;ratioP1;P1;durP2;ratioP2;P2;SDS_P1;SDS_P2;PMS_P1;PMS_P2;Temp;Humidity;BMP_temperature;BMP_pressure;BME280_temperature;BME280_humidity;BME280_pressure;Samples;Min_cycle;Max_cycle;Signal;HPM_P1;HPM_P2
2022/03/30 00:01:58;;;;;;;;;;;;;;;-2.23;62.52;97603.84;5092150;28;19928;-59
2022/03/30 00:04:24;;;;;;;;;;;;;;;-2.21;62.38;97611.44;5091196;28;19935;-59
2022/03/30 00:06:49;;;;;;;;;;;;;;;-2.21;62.22;97609.63;5088206;28;20355;-59
2022/03/30 00:09:15;;;;;;;;;;;;;;;-2.21;62.44;97606.25;5072419;28;19947;-59
2022/03/30 00:11:40;;;;;;;;;;;;;;;-2.16;62.16;97609.03;5070628;28;20287;-59
2022/03/30 00:14:06;;;;;;;;;;;;;;;-2.13;61.72;97614.63;5073113;28;19928;-60
2022/03/30 00:16:34;;;;;;;;;;;;;;;-2.11;62.12;97617.84;5071902;28;19929;-62
2022/03/30 00:19:00;;;;;;;;;;;;;;;-2.21;61.61;97617.41;5072149;28;20351;-63
2022/03/30 00:21:25;;;;;;;;;;;;;;;-2.25;62.17;97618.81;5072038;28;19928;-61
2022/03/30 00:23:52;;;;;;;;;;;;;;;-2.34;61.58;97620.00;5071724;28;19931;-61
2022/03/30 00:26:18;;;;;;;;;;;;;;;-2.31;62.65;97622.22;5072017;28;20073;-63
2022/03/30 00:28:44;;;;;;;;;;;;;;;-2.42;62.51;97625.38;5072000;28;20341;-61
2022/03/30 00:31:11;;;;;;;;;;;;;;;-2.57;62.95;97628.94;5072482;28;19936;-62
2022/03/30 00:33:37;;;;;;;;;;;;;;;-2.59;63.33;97627.53;5071686;28;19925;-62
2022/03/30 00:36:02;;;;;;;;;;;;;;;-2.60;63.25;97629.34;5071593;28;20372;-61
2022/03/30 00:38:28;;;;;;;;;;;;;;;-2.58;63.32;97629.97;5071452;28;20411;-59
2022/03/30 00:40:53;;;;;;;;;;;;;;;-2.69;63.27;97625.34;5071477;28;19933;-62
2022/03/30 00:43:19;;;;;;;;;;;;;;;-2.81;63.66;97625.09;5070539;28;19947;-62
2022/03/30 00:45:45;;;;;;;;;;;;;;;-2.83;63.64;97628.88;5082047;28;19928;-59
2022/03/30 00:48:10;;;;;;;;;;;;;;;-2.90;63.53;97634.03;5091905;28;19931;-61
2022/03/30 00:50:36;;;;;;;;;;;;;;;-3.06;64.01;97632.59;5091662;28;20415;-61
2022/03/30 00:53:01;;;;;;;;;;;;;;;-2.97;63.19;97641.00;5092141;28;19924;-60
2022/03/30 00:55:27;;;;;;;;;;;;;;;-2.91;63.57;97634.22;5071661;28;20351;-62
2022/03/30 00:57:53;;;;;;;;;;;;;;;-2.81;62.59;97637.28;5071422;28;19924;-62
2022/03/30 01:00:19;;;;;;;;;;;;;;;-2.81;62.97;97640.66;5072890;28;20032;-61
2022/03/30 01:02:45;;;;;;;;;;;;;;;-2.96;63.01;97647.78;5091648;28;20023;-62
2022/03/30 01:05:11;;;;;;;;;;;;;;;-3.04;63.54;97640.97;5091534;28;19932;-64
2022/03/30 01:07:37;;;;;;;;;;;;;;;-3.00;64.00;97647.38;5090350;28;19926;-64
2022/03/30 01:10:06;;;;;;;;;;;;;;;-2.97;63.96;97653.97;5079865;28;19928;-65
2022/03/30 01:12:34;;;;;;;;;;;;;;;-2.90;64.22;97656.59;5075110;28;19921;-64
2022/03/30 01:15:00;;;;;;;;;;;;;;;-2.86;63.51;97655.19;5074967;28;19991;-64
2022/03/30 01:17:25;;;;;;;;;;;;;;;-2.78;63.94;97655.03;5088237;28;20297;-64
2022/03/30 01:19:52;;;;;;;;;;;;;;;-2.86;63.64;97660.38;5095269;28;20468;-66
2022/03/30 01:22:17;;;;;;;;;;;;;;;-2.87;64.19;97666.56;5095521;28;20061;-60
2022/03/30 01:24:43;;;;;;;;;;;;;;;-2.86;63.94;97663.78;5092808;28;19969;-60
2022/03/30 01:27:08;;;;;;;;;;;;;;;-2.80;63.83;97664.78;5075075;28;20332;-59
2022/03/30 01:32:25;;;;;;;;;;;;;;;-2.63;64.44;97675.63;5074817;28;19928;-58
2022/03/30 01:34:50;;;;;;;;;;;;;;;-2.57;63.63;97667.88;5073881;28;20347;-59
2022/03/30 01:37:16;;;;;;;;;;;;;;;-2.53;64.04;97676.03;5074875;28;19924;-58
2022/03/30 01:39:41;;;;;;;;;;;;;;;-2.47;64.02;97677.06;5074870;28;19924;-60
2022/03/30 01:42:07;;;;;;;;;;;;;;;-2.53;64.09;97676.88;5073291;28;20405;-59
2022/03/30 01:44:33;;;;;;;;;;;;;;;-2.67;63.10;97687.41;5095065;28;19947;-59
2022/03/30 01:46:58;;;;;;;;;;;;;;;-2.62;62.44;97691.00;5094037;28;19935;-58
2022/03/30 01:49:24;;;;;;;;;;;;;;;-2.59;63.39;97693.22;5074269;28;19982;-59
2022/03/30 01:51:53;;;;;;;;;;;;;;;-2.55;63.28;97688.44;5080644;28;19928;-59
2022/03/30 01:54:20;;;;;;;;;;;;;;;-2.60;63.59;97686.41;5094946;28;19924;-58
2022/03/30 01:56:46;;;;;;;;;;;;;;;-2.69;64.22;97690.19;5085121;28;19936;-58
2022/03/30 01:59:11;;;;;;;;;;;;;;;-2.69;64.67;97691.97;5073127;28;19954;-58
2022/03/30 02:01:37;;;;;;;;;;;;;;;-2.65;64.30;97695.78;5074438;28;19989;-59
2022/03/30 02:04:03;;;;;;;;;;;;;;;-2.64;65.09;97693.00;5086727;28;20318;-59
2022/03/30 02:06:28;;;;;;;;;;;;;;;-2.58;64.18;97694.81;5094389;28;19975;-58
2022/03/30 02:08:54;;;;;;;;;;;;;;;-2.63;64.51;97702.38;5094636;28;19928;-58
2022/03/30 02:11:19;;;;;;;;;;;;;;;-2.65;64.42;97703.56;5094119;28;20019;-58
2022/03/30 02:13:45;;;;;;;;;;;;;;;-2.77;64.51;97701.50;5074371;28;20332;-59
2022/03/30 02:16:10;;;;;;;;;;;;;;;-2.82;64.15;97700.50;5074219;28;19971;-57
2022/03/30 02:18:36;;;;;;;;;;;;;;;-3.00;64.03;97707.00;5074255;28;19925;-60
2022/03/30 02:21:01;;;;;;;;;;;;;;;-3.06;64.88;97707.78;5073876;28;20343;-62
2022/03/30 02:23:27;;;;;;;;;;;;;;;-3.25;64.47;97711.03;5074128;28;19925;-62
2022/03/30 02:25:52;;;;;;;;;;;;;;;-3.27;65.37;97710.41;5072770;28;19929;-63
2022/03/30 02:28:18;;;;;;;;;;;;;;;-3.45;65.01;97713.50;5074692;28;19966;-63
2022/03/30 02:30:44;;;;;;;;;;;;;;;-3.57;65.65;97715.81;5073637;28;19928;-63
2022/03/30 02:33:09;;;;;;;;;;;;;;;-3.74;65.30;97719.66;5073855;28;19936;-63
2022/03/30 02:35:35;;;;;;;;;;;;;;;-3.95;66.66;97723.84;5073543;28;19928;-64
2022/03/30 02:38:00;;;;;;;;;;;;;;;-4.00;66.05;97730.56;5092442;28;20026;-66
2022/03/30 02:40:26;;;;;;;;;;;;;;;-4.10;67.38;97725.69;5093649;28;19928;-62
2022/03/30 02:42:51;;;;;;;;;;;;;;;-4.07;66.92;97733.09;5089502;28;19932;-63
2022/03/30 02:45:17;;;;;;;;;;;;;;;-4.06;67.33;97728.72;5073342;28;19929;-62
2022/03/30 02:50:26;;;;;;;;;;;;;;;-4.11;67.63;97734.47;5073535;28;19932;-64
2022/03/30 02:52:52;;;;;;;;;;;;;;;-4.14;67.55;97737.41;5074536;28;19977;-64
2022/03/30 02:55:18;;;;;;;;;;;;;;;-4.08;67.61;97744.44;5073145;28;20032;-63
2022/03/30 02:57:43;;;;;;;;;;;;;;;-4.08;66.68;97744.44;5073374;28;19925;-64
2022/03/30 03:00:09;;;;;;;;;;;;;;;-4.08;66.78;97746.25;5089186;28;19928;-64
2022/03/30 03:02:34;;;;;;;;;;;;;;;-4.16;67.78;97747.94;5093535;28;19935;-64
2022/03/30 03:05:00;;;;;;;;;;;;;;;-4.15;67.20;97746.16;5093478;28;20377;-65
2022/03/30 03:07:26;;;;;;;;;;;;;;;-4.22;67.63;97743.50;5088500;28;20074;-65
2022/03/30 03:09:52;;;;;;;;;;;;;;;-4.29;68.75;97754.75;5072728;28;20036;-66
2022/03/30 03:12:18;;;;;;;;;;;;;;;-4.37;68.82;97746.13;5055090;28;19925;-61
2022/03/30 03:14:43;;;;;;;;;;;;;;;-4.37;68.58;97753.09;5080427;28;19928;-62
2022/03/30 03:17:09;;;;;;;;;;;;;;;-4.44;68.36;97757.38;5093172;28;19955;-60
2022/03/30 03:19:34;;;;;;;;;;;;;;;-4.51;69.16;97753.91;5093376;28;19928;-60
2022/03/30 03:21:59;;;;;;;;;;;;;;;-4.57;68.76;97766.56;5092880;28;19928;-60
2022/03/30 03:24:25;;;;;;;;;;;;;;;-4.58;69.34;97766.78;5091678;28;19924;-59
2022/03/30 03:26:51;;;;;;;;;;;;;;;-4.59;69.33;97767.75;5074615;28;19935;-63
2022/03/30 03:29:16;;;;;;;;;;;;;;;-4.59;69.50;97770.31;5074971;28;20301;-60
2022/03/30 03:31:42;;;;;;;;;;;;;;;-4.52;69.94;97778.19;5071671;28;19935;-61
2022/03/30 03:34:08;;;;;;;;;;;;;;;-4.37;69.47;97784.94;5070909;28;20409;-61
2022/03/30 03:36:34;;;;;;;;;;;;;;;-4.18;68.07;97785.31;5071072;28;19928;-63
2022/03/30 03:39:00;;;;;;;;;;;;;;;-4.01;68.16;97788.50;5079176;28;20041;-63
2022/03/30 03:41:25;;;;;;;;;;;;;;;-3.93;66.74;97794.38;5092504;28;20311;-62
2022/03/30 03:43:51;;;;;;;;;;;;;;;-3.70;66.18;97790.81;5090633;28;19976;-64
2022/03/30 03:46:16;;;;;;;;;;;;;;;-3.53;65.58;97797.34;5081230;28;20057;-63
2022/03/30 03:48:42;;;;;;;;;;;;;;;-3.40;65.33;97798.44;5072509;28;19930;-64
2022/03/30 03:51:07;;;;;;;;;;;;;;;-3.28;64.03;97813.28;5070790;28;20502;-63
2022/03/30 03:53:35;;;;;;;;;;;;;;;-3.15;63.73;97809.97;5072323;28;20378;-64
2022/03/30 03:56:01;;;;;;;;;;;;;;;-2.96;63.52;97813.72;5072863;28;20020;-62
2022/03/30 03:58:27;;;;;;;;;;;;;;;-2.82;62.54;97818.00;5072130;28;19967;-62
2022/03/30 04:00:53;;;;;;;;;;;;;;;-2.64;62.24;97827.09;5071933;28;19975;-63
2022/03/30 04:03:18;;;;;;;;;;;;;;;-2.49;61.63;97835.53;5071938;28;20011;-65
2022/03/30 04:05:44;;;;;;;;;;;;;;;-2.28;60.66;97834.63;5071869;28;20031;-62
2022/03/30 04:08:10;;;;;;;;;;;;;;;-2.13;60.20;97835.31;5072063;28;19928;-61
2022/03/30 04:10:36;;;;;;;;;;;;;;;-2.06;59.58;97827.53;5073026;28;19959;-64
2022/03/30 04:13:04;;;;;;;;;;;;;;;-1.98;59.54;97834.34;5070840;28;19954;-62
2022/03/30 04:15:30;;;;;;;;;;;;;;;-1.85;59.10;97839.59;5071762;28;20250;-63
2022/03/30 04:17:57;;;;;;;;;;;;;;;-1.77;58.46;97833.41;5071867;28;20320;-63
2022/03/30 04:20:23;;;;;;;;;;;;;;;-1.81;58.56;97833.00;5071742;28;19928;-62
2022/03/30 04:22:48;;;;;;;;;;;;;;;-1.91;58.49;97840.34;5071985;28;19985;-64
2022/03/30 04:25:14;;;;;;;;;;;;;;;-1.77;58.90;97842.00;5071698;28;19929;-64
2022/03/30 04:27:44;;;;;;;;;;;;;;;-1.73;58.68;97842.44;5071060;28;19925;-64
2022/03/30 04:30:10;;;;;;;;;;;;;;;-1.69;58.52;97839.22;5071459;28;20294;-62
2022/03/30 04:32:36;;;;;;;;;;;;;;;-1.64;58.42;97847.25;5071594;28;19920;-62
2022/03/30 04:35:01;;;;;;;;;;;;;;;-1.64;58.32;97849.84;5072600;28;20283;-63
2022/03/30 04:37:28;;;;;;;;;;;;;;;-1.64;58.26;97847.25;5071293;28;19920;-62
2022/03/30 04:39:53;;;;;;;;;;;;;;;-1.62;58.42;97853.06;5070844;28;19929;-64
2022/03/30 04:42:20;;;;;;;;;;;;;;;-1.61;58.22;97853.84;5081427;28;19924;-60
2022/03/30 04:44:46;;;;;;;;;;;;;;;-1.58;58.34;97855.25;5088771;28;19928;-60
2022/03/30 04:47:11;;;;;;;;;;;;;;;-1.57;57.95;97859.44;5087423;28;19970;-59
2022/03/30 04:49:37;;;;;;;;;;;;;;;-1.62;58.41;97860.84;5096276;28;19924;-59
2022/03/30 04:52:02;;;;;;;;;;;;;;;-1.70;58.22;97861.03;5095684;28;19989;-57
2022/03/30 04:54:29;;;;;;;;;;;;;;;-1.71;57.98;97861.19;5094194;28;19924;-60
2022/03/30 04:56:54;;;;;;;;;;;;;;;-1.78;58.86;97866.38;5093833;28;19983;-62
2022/03/30 04:59:20;;;;;;;;;;;;;;;-1.73;58.61;97871.81;5081682;28;19975;-61
2022/03/30 05:01:45;;;;;;;;;;;;;;;-1.72;58.87;97870.00;5075233;28;19929;-62
2022/03/30 05:04:11;;;;;;;;;;;;;;;-1.61;58.06;97875.44;5075606;28;20589;-61
2022/03/30 05:06:36;;;;;;;;;;;;;;;-1.58;58.39;97868.25;5074762;28;19928;-61
2022/03/30 05:09:02;;;;;;;;;;;;;;;-1.68;58.35;97881.59;5075227;28;20019;-62
2022/03/30 05:11:27;;;;;;;;;;;;;;;-1.72;58.42;97883.00;5075243;28;19959;-61
2022/03/30 05:13:53;;;;;;;;;;;;;;;-1.67;58.51;97885.81;5086810;28;19924;-61
2022/03/30 05:16:18;;;;;;;;;;;;;;;-1.57;58.08;97891.41;5095320;28;20032;-63
2022/03/30 05:18:44;;;;;;;;;;;;;;;-1.64;57.96;97888.81;5095432;28;19928;-63
2022/03/30 05:21:09;;;;;;;;;;;;;;;-1.57;58.16;97888.03;5094998;28;19928;-61
2022/03/30 05:23:36;;;;;;;;;;;;;;;-1.77;58.63;97896.56;5093554;28;19946;-61
2022/03/30 05:26:04;;;;;;;;;;;;;;;-1.69;58.07;97893.78;5083999;28;20345;-61
2022/03/30 05:28:30;;;;;;;;;;;;;;;-1.67;57.54;97893.59;5093150;28;19931;-60
2022/03/30 05:30:55;;;;;;;;;;;;;;;-1.61;56.81;97900.63;5088338;28;19928;-59
2022/03/30 05:33:21;;;;;;;;;;;;;;;-1.45;56.26;97900.25;5074979;28;20428;-62
2022/03/30 05:35:48;;;;;;;;;;;;;;;-1.29;55.33;97911.28;5074750;28;20401;-62
2022/03/30 05:38:13;;;;;;;;;;;;;;;-1.32;55.91;97911.66;5074385;28;19924;-60
2022/03/30 05:40:39;;;;;;;;;;;;;;;-1.46;55.92;97913.44;5073817;28;19928;-62
2022/03/30 05:43:04;;;;;;;;;;;;;;;-1.42;56.10;97917.25;5074425;28;20344;-62
2022/03/30 05:45:30;;;;;;;;;;;;;;;-1.39;55.43;97922.06;5093437;28;20316;-61
2022/03/30 05:47:55;;;;;;;;;;;;;;;-1.22;55.14;97917.28;5087826;28;20270;-61
2022/03/30 05:50:23;;;;;;;;;;;;;;;-1.21;54.77;97931.88;5091926;28;20312;-62
2022/03/30 05:52:48;;;;;;;;;;;;;;;-1.35;54.79;97931.06;5082079;28;19925;-60
2022/03/30 05:55:14;;;;;;;;;;;;;;;-1.64;55.38;97937.38;5073291;28;20413;-60
2022/03/30 05:57:40;;;;;;;;;;;;;;;-1.79;56.15;97931.50;5055398;28;19928;-60
2022/03/30 06:00:07;;;;;;;;;;;;;;;-1.48;55.56;97934.41;5071894;28;19928;-61
2022/03/30 06:02:39;;;;;;;;;;;;;;;-1.23;54.75;97934.69;5072962;28;20369;-61
2022/03/30 06:05:05;;;;;;;;;;;;;;;-1.06;53.86;97934.31;5071988;28;19933;-61
2022/03/30 06:07:31;;;;;;;;;;;;;;;-0.74;53.41;97933.53;5085506;28;19931;-61
2022/03/30 06:09:56;;;;;;;;;;;;;;;-0.39;52.41;97933.31;5084459;28;20317;-58
2022/03/30 06:12:25;;;;;;;;;;;;;;;-0.18;51.33;97941.88;5089796;28;19924;-59
2022/03/30 06:14:51;;;;;;;;;;;;;;;-0.05;50.88;97947.88;5086868;28;19935;-58
2022/03/30 06:17:18;;;;;;;;;;;;;;;-0.03;50.44;97951.09;5086060;28;20051;-59
2022/03/30 06:19:45;;;;;;;;;;;;;;;0.03;50.70;97956.47;5088618;28;19960;-59
2022/03/30 06:22:11;;;;;;;;;;;;;;;-0.16;50.76;97953.72;5084569;28;20309;-59
2022/03/30 06:24:37;;;;;;;;;;;;;;;-0.33;50.75;97950.72;5069125;28;20277;-59
2022/03/30 06:27:04;;;;;;;;;;;;;;;-0.50;50.93;97959.94;5067913;28;19928;-58
2022/03/30 06:29:30;;;;;;;;;;;;;;;-0.52;50.69;97964.56;5069662;28;20052;-58
2022/03/30 06:31:56;;;;;;;;;;;;;;;-0.44;50.54;97968.75;5067949;28;19974;-57
2022/03/30 06:34:22;;;;;;;;;;;;;;;-0.66;50.81;97962.97;5069075;28;19963;-59
2022/03/30 06:36:47;;;;;;;;;;;;;;;-0.64;50.48;97972.19;5068475;28;19929;-58
2022/03/30 06:39:13;;;;;;;;;;;;;;;-0.42;50.32;97969.38;5069109;28;20062;-59
2022/03/30 06:41:39;;;;;;;;;;;;;;;-0.02;49.50;97981.34;5005106;28;1836011;-57
2022/03/30 06:44:04;;;;;;;;;;;;;;;-0.05;48.78;97978.34;5077329;28;19989;-59
2022/03/30 06:46:33;;;;;;;;;;;;;;;0.22;48.54;97984.28;5077415;28;19932;-56
2022/03/30 06:49:00;;;;;;;;;;;;;;;0.09;48.30;97989.50;5068932;28;19964;-60
2022/03/30 06:51:26;;;;;;;;;;;;;;;0.30;47.39;97991.09;5075984;28;20405;-58
2022/03/30 06:53:51;;;;;;;;;;;;;;;0.55;47.06;97983.38;5067840;28;19944;-57
2022/03/30 06:56:17;;;;;;;;;;;;;;;0.92;45.35;97992.22;5070165;28;19981;-62
2022/03/30 06:58:42;;;;;;;;;;;;;;;1.39;44.68;97989.31;5074147;28;19924;-59
2022/03/30 07:01:08;;;;;;;;;;;;;;;1.75;43.90;97991.22;5084072;28;19935;-58
2022/03/30 07:03:33;;;;;;;;;;;;;;;1.73;43.67;97991.44;5089347;28;20284;-59
2022/03/30 07:06:00;;;;;;;;;;;;;;;1.52;43.62;97997.84;5087610;28;19963;-57
2022/03/30 07:11:10;;;;;;;;;;;;;;;1.58;42.98;98001.41;5079341;28;19928;-59
2022/03/30 07:13:35;;;;;;;;;;;;;;;1.88;42.46;98000.75;5067991;28;20522;-58
2022/03/30 07:16:02;;;;;;;;;;;;;;;2.22;41.95;98015.09;5087521;28;20035;-59
2022/03/30 07:18:27;;;;;;;;;;;;;;;2.38;41.37;98006.69;5083947;28;19924;-59
2022/03/30 07:20:53;;;;;;;;;;;;;;;2.21;41.33;98016.94;5079091;28;20035;-59
2022/03/30 07:23:20;;;;;;;;;;;;;;;2.39;41.34;98020.56;5088306;28;19946;-60
2022/03/30 07:25:46;;;;;;;;;;;;;;;2.27;41.13;98023.09;5088333;28;19975;-59
2022/03/30 07:28:12;;;;;;;;;;;;;;;2.18;41.44;98019.97;5072394;28;19978;-60
2022/03/30 07:30:38;;;;;;;;;;;;;;;2.35;40.85;98025.41;5080222;28;19932;-60
2022/03/30 07:33:03;;;;;;;;;;;;;;;2.15;41.33;98024.84;5089089;28;20453;-61
2022/03/30 07:35:32;;;;;;;;;;;;;;;2.16;39.35;98026.44;5053705;28;19928;-62
2022/03/30 07:37:58;;;;;;;;;;;;;;;2.18;39.64;98025.22;5071238;28;19925;-61
2022/03/30 07:40:24;;;;;;;;;;;;;;;2.13;39.88;98034.72;5069202;28;20024;-61
2022/03/30 07:42:50;;;;;;;;;;;;;;;2.35;39.39;98032.47;5075021;28;20035;-62
2022/03/30 07:45:16;;;;;;;;;;;;;;;2.52;38.86;98028.25;5085621;28;20019;-62
2022/03/30 07:47:42;;;;;;;;;;;;;;;2.93;38.00;98040.66;5089221;28;20385;-59
2022/03/30 07:50:08;;;;;;;;;;;;;;;2.80;37.78;98030.34;5087890;28;19946;-62
2022/03/30 07:52:33;;;;;;;;;;;;;;;2.39;36.90;98034.44;5090079;28;20418;-62
2022/03/30 07:54:59;;;;;;;;;;;;;;;2.23;37.89;98043.63;5089307;28;19935;-61
2022/03/30 07:57:27;;;;;;;;;;;;;;;2.34;37.46;98044.75;5086722;28;20301;-62
2022/03/30 07:59:54;;;;;;;;;;;;;;;2.54;37.20;98044.53;5087220;28;19928;-62
2022/03/30 08:02:19;;;;;;;;;;;;;;;2.61;36.45;98042.63;5088616;28;20355;-61
2022/03/30 08:04:45;;;;;;;;;;;;;;;2.58;36.09;98044.91;5089700;28;19936;-64
2022/03/30 08:07:10;;;;;;;;;;;;;;;2.66;36.41;98040.16;5073020;28;19986;-62
2022/03/30 08:09:36;;;;;;;;;;;;;;;2.91;35.98;98041.88;5070705;28;19966;-63
2022/03/30 08:12:03;;;;;;;;;;;;;;;3.06;36.08;98047.56;5089532;28;19928;-61
2022/03/30 08:14:29;;;;;;;;;;;;;;;3.27;35.18;98051.50;5054057;28;19924;-61
2022/03/30 08:16:54;;;;;;;;;;;;;;;3.34;35.15;98051.41;5089978;28;20327;-61
2022/03/30 08:19:20;;;;;;;;;;;;;;;3.58;34.73;98036.53;5090969;28;20305;-62
2022/03/30 08:24:30;;;;;;;;;;;;;;;3.69;34.49;98048.06;5086066;28;19931;-61
2022/03/30 08:26:56;;;;;;;;;;;;;;;3.78;34.50;98051.94;5089952;28;20377;-62
2022/03/30 08:29:22;;;;;;;;;;;;;;;3.87;34.59;98051.38;5088953;28;20018;-62
2022/03/30 08:31:48;;;;;;;;;;;;;;;3.88;34.59;98049.56;5088304;28;20019;-60
2022/03/30 08:34:14;;;;;;;;;;;;;;;3.71;34.82;98057.31;5073646;28;20344;-60
2022/03/30 08:36:40;;;;;;;;;;;;;;;3.59;34.88;98059.09;5070473;28;19935;-61
2022/03/30 08:39:11;;;;;;;;;;;;;;;3.67;35.25;98056.13;5073946;28;19924;-61
2022/03/30 08:41:43;;;;;;;;;;;;;;;3.79;35.04;98058.78;5088700;28;20396;-62
2022/03/30 08:44:10;;;;;;;;;;;;;;;4.01;35.09;98059.84;5086742;28;19981;-66
2022/03/30 08:46:37;;;;;;;;;;;;;;;4.06;35.27;98059.97;5072658;28;20000;-66
2022/03/30 08:49:02;;;;;;;;;;;;;;;4.18;34.65;98059.19;5071703;28;19924;-62
2022/03/30 08:51:28;;;;;;;;;;;;;;;4.39;34.54;98063.03;5088652;28;20381;-58
2022/03/30 08:53:54;;;;;;;;;;;;;;;4.43;34.16;98057.09;5088889;28;19923;-57
2022/03/30 08:56:20;;;;;;;;;;;;;;;4.81;33.46;98060.22;5087778;28;20263;-59
2022/03/30 08:58:45;;;;;;;;;;;;;;;4.77;33.26;98054.66;5086914;28;20313;-58
2022/03/30 09:01:12;;;;;;;;;;;;;;;4.87;33.36;98054.03;5090048;28;19950;-59
2022/03/30 09:03:57;;;;;;;;;;;;;;;4.77;33.23;98065.94;5089555;28;19960;-60
2022/03/30 09:06:42;;;;;;;;;;;;;;;4.63;33.47;98061.19;5088420;28;19948;-61
2022/03/30 09:09:08;;;;;;;;;;;;;;;4.20;33.61;98062.34;5090704;28;19924;-59
2022/03/30 09:11:55;;;;;;;;;;;;;;;4.55;32.96;98060.50;5089584;28;19928;-59
2022/03/30 09:14:22;;;;;;;;;;;;;;;4.97;31.93;98062.09;5087792;28;20044;-59
2022/03/30 09:16:51;;;;;;;;;;;;;;;4.64;32.88;98060.94;5090237;28;20013;-58
2022/03/30 09:19:18;;;;;;;;;;;;;;;4.51;32.42;98059.38;5089551;28;19955;-58
2022/03/30 09:21:47;;;;;;;;;;;;;;;4.38;32.85;98058.81;5089157;28;19935;-59
2022/03/30 09:24:14;;;;;;;;;;;;;;;4.18;33.60;98067.03;5088710;28;19924;-62
2022/03/30 09:26:40;;;;;;;;;;;;;;;4.23;32.94;98067.13;5089833;28;19982;-60
2022/03/30 09:29:07;;;;;;;;;;;;;;;4.03;32.17;98055.19;5089382;28;19990;-61
2022/03/30 09:31:33;;;;;;;;;;;;;;;3.82;33.03;98060.94;5083874;28;19938;-63
2022/03/30 09:34:02;;;;;;;;;;;;;;;3.55;33.88;98052.69;5078217;28;19924;-61
2022/03/30 09:36:38;;;;;;;;;;;;;;;3.27;32.91;98048.88;5092816;28;19934;-59
2022/03/30 09:39:04;;;;;;;;;;;;;;;3.16;32.07;98058.28;5076201;28;20022;-59
2022/03/30 09:41:46;;;;;;;;;;;;;;;3.02;31.72;98056.06;5073321;28;19928;-61
2022/03/30 09:44:12;;;;;;;;;;;;;;;3.14;32.25;98057.69;5071428;28;19924;-61
2022/03/30 09:46:53;;;;;;;;;;;;;;;3.40;30.84;98058.34;5072645;28;20027;-61
2022/03/30 09:49:31;;;;;;;;;;;;;;;3.64;29.20;98046.91;5073313;28;19931;-62
2022/03/30 09:51:57;;;;;;;;;;;;;;;3.79;29.78;98056.94;5072641;28;19928;-59
2022/03/30 09:54:38;;;;;;;;;;;;;;;3.80;31.08;98052.53;5073978;28;19924;-60
2022/03/30 09:57:34;;;;;;;;;;;;;;;4.02;31.14;98060.63;5073448;28;19935;-59
2022/03/30 10:00:03;;;;;;;;;;;;;;;4.52;30.58;98060.16;5073882;28;19935;-62
2022/03/30 10:02:38;;;;;;;;;;;;;;;4.59;29.79;98055.59;5073054;28;19978;-62
2022/03/30 10:05:05;;;;;;;;;;;;;;;4.68;30.81;98056.03;5073460;28;19935;-60
2022/03/30 10:07:30;;;;;;;;;;;;;;;4.89;30.26;98063.28;5072553;28;19932;-62
2022/03/30 10:09:57;;;;;;;;;;;;;;;4.82;29.89;98067.84;5070864;28;19953;-60
2022/03/30 10:12:23;;;;;;;;;;;;;;;4.78;30.33;98067.53;5073207;28;20065;-59
2022/03/30 10:14:49;;;;;;;;;;;;;;;4.85;30.08;98070.00;5091358;28;19928;-60
2022/03/30 10:17:19;;;;;;;;;;;;;;;4.96;30.59;98076.28;5091662;28;19945;-61
2022/03/30 10:20:01;;;;;;;;;;;;;;;4.83;30.96;98076.56;5054673;28;19932;-58
2022/03/30 10:22:31;;;;;;;;;;;;;;;4.21;30.81;98074.47;5088245;28;19924;-59
2022/03/30 10:25:14;;;;;;;;;;;;;;;3.82;30.85;98072.25;5077105;28;20002;-60
2022/03/30 10:27:53;;;;;;;;;;;;;;;3.66;31.07;98085.22;5060981;28;20376;-59
2022/03/30 10:30:29;;;;;;;;;;;;;;;3.73;31.13;98075.41;5091070;28;19928;-59
2022/03/30 10:32:58;;;;;;;;;;;;;;;3.35;31.58;98077.38;5091398;28;19924;-56
2022/03/30 10:35:56;;;;;;;;;;;;;;;3.48;31.92;98084.25;5083006;28;19981;-60
2022/03/30 10:38:22;;;;;;;;;;;;;;;3.63;31.99;98076.75;5072863;28;20015;-60
2022/03/30 10:40:48;;;;;;;;;;;;;;;3.90;32.17;98080.81;5085130;28;20022;-58
2022/03/30 10:43:25;;;;;;;;;;;;;;;4.29;34.82;98076.72;5087960;28;19993;-58
2022/03/30 10:45:51;;;;;;;;;;;;;;;4.53;32.01;98082.78;5057180;28;19954;-60
2022/03/30 10:48:29;;;;;;;;;;;;;;;4.64;30.62;98081.13;5090728;28;19924;-58
2022/03/30 10:50:59;;;;;;;;;;;;;;;4.81;30.45;98089.09;5085113;28;19932;-59
2022/03/30 10:53:31;;;;;;;;;;;;;;;4.63;29.40;98088.22;5052595;28;19935;-60
2022/03/30 10:56:15;;;;;;;;;;;;;;;4.47;29.90;98084.47;5070654;28;19928;-60
2022/03/30 10:58:44;;;;;;;;;;;;;;;4.46;29.70;98082.06;5079686;28;20296;-61
2022/03/30 11:01:12;;;;;;;;;;;;;;;4.33;29.68;98091.00;5068958;28;19928;-59
2022/03/30 11:03:58;;;;;;;;;;;;;;;3.91;29.67;98091.03;5066228;28;19929;-60
2022/03/30 11:06:24;;;;;;;;;;;;;;;3.42;29.54;98093.78;5069011;28;19932;-60
2022/03/30 11:08:51;;;;;;;;;;;;;;;3.21;30.49;98089.06;5088229;28;19931;-61
2022/03/30 11:11:21;;;;;;;;;;;;;;;3.09;30.89;98096.03;5088813;28;19967;-59
2022/03/30 11:13:46;;;;;;;;;;;;;;;2.91;31.22;98083.75;5089320;28;20372;-59
2022/03/30 11:16:12;;;;;;;;;;;;;;;2.78;31.51;98097.81;5074066;28;19935;-62
2022/03/30 11:18:53;;;;;;;;;;;;;;;2.68;31.55;98093.09;5076571;28;20545;-61
2022/03/30 11:21:19;;;;;;;;;;;;;;;2.40;32.53;98092.78;5070705;28;20417;-60
2022/03/30 11:23:55;;;;;;;;;;;;;;;2.33;32.02;98092.03;5082936;28;19966;-58
2022/03/30 11:26:22;;;;;;;;;;;;;;;2.25;32.21;98090.50;5089008;28;19928;-60
2022/03/30 11:28:47;;;;;;;;;;;;;;;2.27;31.44;98091.88;5074088;28;19982;-60
2022/03/30 11:31:20;;;;;;;;;;;;;;;2.48;31.58;98092.50;5087901;28;20337;-61
2022/03/30 11:33:51;;;;;;;;;;;;;;;2.82;31.22;98096.34;5079321;28;19928;-57
2022/03/30 11:36:19;;;;;;;;;;;;;;;3.02;30.55;98098.72;5068671;28;19928;-59
2022/03/30 11:38:44;;;;;;;;;;;;;;;3.20;30.37;98097.91;5068359;28;19925;-57
2022/03/30 11:41:10;;;;;;;;;;;;;;;3.50;30.66;98100.56;5070189;28;19929;-58
2022/03/30 11:45:12;;;;;;;;;;;;;;;3.72;30.68;98097.41;5069202;28;19924;-58
2022/03/30 11:46:23;;;;;;;;;;;;;;;3.61;29.73;98099.75;5068917;28;19935;-58
2022/03/30 11:48:49;;;;;;;;;;;;;;;3.54;29.51;98099.06;5068913;28;19935;-58
2022/03/30 11:51:14;;;;;;;;;;;;;;;3.42;29.43;98100.84;5068605;28;20320;-59
2022/03/30 11:53:41;;;;;;;;;;;;;;;3.54;29.56;98101.69;5067225;28;19964;-59
2022/03/30 11:56:08;;;;;;;;;;;;;;;3.52;30.13;98100.31;5068804;28;20215;-59
2022/03/30 11:58:37;;;;;;;;;;;;;;;3.36;29.67;98104.38;5050601;28;19978;-59
2022/03/30 12:01:06;;;;;;;;;;;;;;;3.06;30.06;98102.53;5066122;28;20149;-58
2022/03/30 12:03:32;;;;;;;;;;;;;;;3.03;30.53;98099.53;5070335;28;19978;-57
2022/03/30 12:05:59;;;;;;;;;;;;;;;2.83;30.72;98102.41;5071449;28;20400;-58
2022/03/30 12:08:25;;;;;;;;;;;;;;;2.82;30.59;98100.78;5068631;28;20038;-57
2022/03/30 12:10:53;;;;;;;;;;;;;;;2.94;30.28;98106.88;5069723;28;19929;-59
2022/03/30 12:13:25;;;;;;;;;;;;;;;2.82;29.52;98106.81;5070481;28;19932;-62
2022/03/30 12:16:03;;;;;;;;;;;;;;;2.86;30.61;98099.34;5070714;28;19928;-60
2022/03/30 12:18:29;;;;;;;;;;;;;;;2.91;30.06;98102.91;5062616;28;19924;-61
2022/03/30 12:20:54;;;;;;;;;;;;;;;2.94;30.29;98102.47;5070755;28;19971;-61
2022/03/30 12:23:20;;;;;;;;;;;;;;;2.79;30.37;98099.41;5067333;28;19960;-61
2022/03/30 12:25:45;;;;;;;;;;;;;;;2.74;29.45;98094.03;5067680;28;19939;-59
2022/03/30 12:28:11;;;;;;;;;;;;;;;2.63;30.14;98097.38;5065109;28;19924;-60
2022/03/30 12:30:37;;;;;;;;;;;;;;;2.66;30.25;98094.31;5074376;28;19974;-59
2022/03/30 12:33:03;;;;;;;;;;;;;;;2.85;30.57;98103.75;5070350;28;20384;-61
2022/03/30 12:35:29;;;;;;;;;;;;;;;3.00;30.08;98105.19;5065993;28;20468;-61
2022/03/30 12:38:11;;;;;;;;;;;;;;;3.24;29.99;98103.53;5067348;28;20261;-62
2022/03/30 12:40:40;;;;;;;;;;;;;;;3.36;29.75;98107.78;5068301;28;19928;-61
2022/03/30 12:43:06;;;;;;;;;;;;;;;3.29;29.36;98106.25;5068701;28;19935;-61
2022/03/30 12:45:31;;;;;;;;;;;;;;;3.36;29.37;98107.78;5067271;28;19928;-59
2022/03/30 12:47:59;;;;;;;;;;;;;;;3.37;28.75;98108.56;5067586;28;19974;-62
2022/03/30 12:50:32;;;;;;;;;;;;;;;3.43;29.37;98107.69;5078957;28;20024;-62
2022/03/30 12:53:16;;;;;;;;;;;;;;;3.30;28.97;98100.81;5088819;28;19945;-61
2022/03/30 12:55:42;;;;;;;;;;;;;;;3.15;29.53;98103.81;5087822;28;19997;-60
2022/03/30 12:58:11;;;;;;;;;;;;;;;3.39;29.23;98104.72;5088020;28;19923;-59
2022/03/30 13:00:37;;;;;;;;;;;;;;;3.63;30.16;98112.66;5088020;28;19934;-61
2022/03/30 13:03:03;;;;;;;;;;;;;;;3.66;30.06;98120.06;5077772;28;20174;-61
2022/03/30 13:05:28;;;;;;;;;;;;;;;3.65;29.34;98110.63;5080612;28;19972;-62